Time;durP1;ratioP1;P1;durP2;ratioP2;P2;SDS_P1;SDS_P2;PMS_P1;PMS_P2;Temp;Humidity;BMP_temperature;BMP_pressure;BME280_temperature;BME280_humidity;BME280_pressure;Samples;Min_cycle;Max_cycle;Signal;HPM_P1;HPM_P2
2023/03/10 00:02:21;;;;;;;;;;;;;;;15.15;47.73;98030.34;5035640;28;20047;-89
2023/03/10 00:04:52;;;;;;;;;;;;;;;15.10;47.89;98024.72;5035063;28;20379;-89
2023/03/10 00:07:17;;;;;;;;;;;;;;;15.04;47.81;98034.09;5034757;28;20003;-91
2023/03/10 00:09:43;;;;;;;;;;;;;;;14.98;48.00;98045.25;5051556;28;20422;-90
2023/03/10 00:12:09;;;;;;;;;;;;;;;14.94;47.97;98041.28;5053456;28;19923;-91
2023/03/10 00:14:34;;;;;;;;;;;;;;;14.88;48.13;98037.53;5088465;28;19924;-91
2023/03/10 00:17:00;;;;;;;;;;;;;;;14.84;48.18;98034.38;5038690;28;20310;-91
2023/03/10 00:19:25;;;;;;;;;;;;;;;14.78;48.22;98037.66;5055112;28;19966;-92
2023/03/10 00:21:51;;;;;;;;;;;;;;;14.73;48.30;98039.13;5038138;28;19921;-91
2023/03/10 00:24:16;;;;;;;;;;;;;;;14.68;48.32;98036.97;5038733;28;19924;-90
2023/03/10 00:26:44;;;;;;;;;;;;;;;14.66;48.32;98044.22;5058286;28;19939;-89
2023/03/10 00:29:10;;;;;;;;;;;;;;;14.62;48.37;98041.06;5058466;28;20372;-91
2023/03/10 00:31:35;;;;;;;;;;;;;;;14.59;48.60;98043.16;5058230;28;20350;-90
2023/03/10 00:34:01;;;;;;;;;;;;;;;14.53;48.83;98042.00;5058497;28;19946;-90
2023/03/10 00:36:27;;;;;;;;;;;;;;;14.50;48.69;98046.72;5041477;28;19916;-93
2023/03/10 00:38:52;;;;;;;;;;;;;;;14.45;48.59;98049.84;5058371;28;19917;-92
2023/03/10 00:41:19;;;;;;;;;;;;;;;14.39;48.97;98056.56;5058298;28;19916;-91
2023/03/10 00:43:44;;;;;;;;;;;;;;;14.35;49.13;98057.84;5076517;28;20372;-91
2023/03/10 00:46:10;;;;;;;;;;;;;;;14.31;48.96;98053.91;5041311;28;19916;-90
2023/03/10 00:48:35;;;;;;;;;;;;;;;14.28;49.21;98046.34;5076017;28;19966;-90
2023/03/10 00:51:00;;;;;;;;;;;;;;;14.22;49.32;98045.16;5040965;28;20026;-91
2023/03/10 00:53:26;;;;;;;;;;;;;;;14.17;49.44;98038.72;5041331;28;20083;-91
2023/03/10 00:56:01;;;;;;;;;;;;;;;14.15;49.50;98031.00;5057866;28;19923;-91
2023/03/10 00:58:27;;;;;;;;;;;;;;;14.11;49.54;98027.06;5057796;28;19936;-91
2023/03/10 01:00:53;;;;;;;;;;;;;;;14.09;49.62;98031.66;5064629;28;19923;-90
2023/03/10 01:03:19;;;;;;;;;;;;;;;14.06;49.59;98022.28;5062242;28;20421;-91
2023/03/10 01:05:44;;;;;;;;;;;;;;;14.05;49.49;98031.13;5057784;28;19920;-90
2023/03/10 01:08:10;;;;;;;;;;;;;;;14.01;49.65;98026.34;5057383;28;20399;-92
2023/03/10 01:10:35;;;;;;;;;;;;;;;13.99;49.88;98028.31;5075355;28;20368;-92
2023/03/10 01:13:00;;;;;;;;;;;;;;;13.97;49.92;98020.59;5040646;28;19920;-91
2023/03/10 01:15:25;;;;;;;;;;;;;;;13.94;49.77;98029.59;5057531;28;19916;-91
2023/03/10 01:17:51;;;;;;;;;;;;;;;13.92;50.04;98035.97;5057219;28;19920;-92
2023/03/10 01:20:17;;;;;;;;;;;;;;;13.87;49.95;98033.81;5057057;28;20300;-90
2023/03/10 01:22:43;;;;;;;;;;;;;;;13.87;49.97;98028.56;5040598;28;19981;-91
2023/03/10 01:25:11;;;;;;;;;;;;;;;13.84;50.15;98041.19;5056723;28;19992;-91
2023/03/10 01:27:36;;;;;;;;;;;;;;;13.80;50.22;98029.34;5039823;28;19985;-91
2023/03/10 01:30:02;;;;;;;;;;;;;;;13.75;50.18;98029.81;5040395;28;20438;-91
2023/03/10 01:32:27;;;;;;;;;;;;;;;13.72;50.35;98032.75;5057698;28;20019;-92
2023/03/10 01:34:52;;;;;;;;;;;;;;;13.68;50.23;98024.38;5075172;28;19924;-91
2023/03/10 01:37:20;;;;;;;;;;;;;;;13.66;50.44;98028.09;5056828;28;19916;-90
2023/03/10 01:39:45;;;;;;;;;;;;;;;13.60;50.41;98036.59;5056448;28;19917;-91
2023/03/10 01:42:11;;;;;;;;;;;;;;;13.57;50.55;98041.16;5040082;28;19921;-91
2023/03/10 01:44:38;;;;;;;;;;;;;;;13.54;50.67;98040.66;5074581;28;20352;-91
2023/03/10 01:47:03;;;;;;;;;;;;;;;13.52;50.56;98038.19;5057290;28;19924;-92
2023/03/10 01:49:30;;;;;;;;;;;;;;;13.49;50.71;98041.13;5074787;28;19916;-91
2023/03/10 01:51:57;;;;;;;;;;;;;;;13.47;50.85;98048.31;5056880;28;19923;-92
2023/03/10 01:54:28;;;;;;;;;;;;;;;13.45;50.95;98052.06;5040473;28;19951;-93
2023/03/10 01:56:53;;;;;;;;;;;;;;;13.42;50.95;98053.19;5057276;28;19917;-92
2023/03/10 01:59:19;;;;;;;;;;;;;;;13.41;50.90;98040.22;5056794;28;20386;-92
2023/03/10 02:01:44;;;;;;;;;;;;;;;13.40;50.98;98039.41;5040297;28;19923;-91
2023/03/10 02:04:22;;;;;;;;;;;;;;;13.37;51.10;98037.09;5056797;28;19961;-93
2023/03/10 02:06:47;;;;;;;;;;;;;;;13.35;51.07;98044.28;5040040;28;19973;-92
2023/03/10 02:09:12;;;;;;;;;;;;;;;13.33;51.25;98039.19;5040019;28;20019;-91
2023/03/10 02:11:39;;;;;;;;;;;;;;;13.34;50.97;98040.00;5056494;28;19924;-90
2023/03/10 02:14:05;;;;;;;;;;;;;;;13.34;51.26;98032.97;5039787;28;19923;-91
2023/03/10 02:16:30;;;;;;;;;;;;;;;13.33;51.36;98033.09;5074335;28;19920;-92
2023/03/10 02:18:55;;;;;;;;;;;;;;;13.31;51.41;98035.84;5056382;28;20372;-90
2023/03/10 02:21:21;;;;;;;;;;;;;;;13.30;51.49;98041.25;5056141;28;19920;-91
2023/03/10 02:23:52;;;;;;;;;;;;;;;13.28;51.41;98040.59;5056720;28;19916;-92
2023/03/10 02:26:21;;;;;;;;;;;;;;;13.27;51.58;98041.56;5056228;28;19939;-92
2023/03/10 02:28:46;;;;;;;;;;;;;;;13.27;51.36;98038.97;5056387;28;19959;-90
2023/03/10 02:31:12;;;;;;;;;;;;;;;13.24;51.60;98044.50;5057289;28;19916;-92
2023/03/10 02:33:38;;;;;;;;;;;;;;;13.23;51.45;98040.22;5056242;28;19917;-91
2023/03/10 02:36:04;;;;;;;;;;;;;;;13.21;51.73;98043.00;5056009;28;19917;-91
2023/03/10 02:38:29;;;;;;;;;;;;;;;13.19;51.80;98048.38;5039649;28;19939;-92
2023/03/10 02:40:56;;;;;;;;;;;;;;;13.18;51.51;98046.72;5039613;28;20356;-93
2023/03/10 02:43:22;;;;;;;;;;;;;;;13.18;51.93;98045.91;5056273;28;19928;-92
2023/03/10 02:45:48;;;;;;;;;;;;;;;13.19;51.72;98042.31;5039308;28;20336;-92
2023/03/10 02:48:14;;;;;;;;;;;;;;;13.19;52.02;98044.94;5039559;28;19923;-91
2023/03/10 02:50:40;;;;;;;;;;;;;;;13.21;51.97;98041.19;5056231;28;19994;-92
2023/03/10 02:53:14;;;;;;;;;;;;;;;13.22;52.05;98044.66;5056500;28;20338;-92
2023/03/10 02:55:40;;;;;;;;;;;;;;;13.21;52.04;98049.03;5039195;28;19923;-92
2023/03/10 02:58:05;;;;;;;;;;;;;;;13.19;52.07;98053.63;5060116;28;19916;-90
2023/03/10 03:00:30;;;;;;;;;;;;;;;13.18;52.07;98044.09;5070676;28;19924;-93
2023/03/10 03:02:56;;;;;;;;;;;;;;;13.17;52.32;98047.72;5056216;28;20395;-92
2023/03/10 03:05:21;;;;;;;;;;;;;;;13.16;52.32;98047.88;5039183;28;19917;-92
2023/03/10 03:07:47;;;;;;;;;;;;;;;13.16;52.55;98053.91;5055830;28;20398;-92
2023/03/10 03:10:13;;;;;;;;;;;;;;;13.16;52.55;98048.69;5073912;28;19920;-92
2023/03/10 03:12:39;;;;;;;;;;;;;;;13.14;52.70;98058.50;5056240;28;19917;-93
2023/03/10 03:15:05;;;;;;;;;;;;;;;13.15;52.81;98061.94;5039150;28;19917;-92
2023/03/10 03:17:31;;;;;;;;;;;;;;;13.13;52.83;98059.47;5055630;28;19921;-93
2023/03/10 03:19:56;;;;;;;;;;;;;;;13.14;52.88;98058.50;5073154;28;19917;-91
2023/03/10 03:22:22;;;;;;;;;;;;;;;13.13;52.99;98045.53;5039170;28;19916;-92
2023/03/10 03:24:48;;;;;;;;;;;;;;;13.14;52.86;98041.94;5055180;28;19928;-91
2023/03/10 03:27:13;;;;;;;;;;;;;;;13.14;53.02;98044.56;5055609;28;19947;-91
2023/03/10 03:29:38;;;;;;;;;;;;;;;13.13;52.90;98043.75;5055851;28;19962;-92
2023/03/10 03:32:04;;;;;;;;;;;;;;;13.15;52.93;98038.34;5055382;28;19952;-92
2023/03/10 03:34:29;;;;;;;;;;;;;;;13.16;53.30;98043.44;5055597;28;20015;-91
2023/03/10 03:36:55;;;;;;;;;;;;;;;13.17;53.09;98029.38;5055627;28;20437;-93
2023/03/10 03:39:21;;;;;;;;;;;;;;;13.18;53.35;98038.84;5055871;28;20010;-92
2023/03/10 03:41:47;;;;;;;;;;;;;;;13.17;53.40;98029.38;5073709;28;19924;-91
2023/03/10 03:44:13;;;;;;;;;;;;;;;13.19;53.34;98030.03;5056618;28;19920;-92
2023/03/10 03:46:39;;;;;;;;;;;;;;;13.21;53.51;98024.66;5067837;28;20304;-89
2023/03/10 03:49:04;;;;;;;;;;;;;;;13.23;53.29;98027.94;5070123;28;20011;-90
2023/03/10 03:51:29;;;;;;;;;;;;;;;13.23;53.61;98022.69;5044384;28;20353;-91
2023/03/10 03:53:56;;;;;;;;;;;;;;;13.25;53.33;98020.75;5059470;28;19924;-91
2023/03/10 03:56:21;;;;;;;;;;;;;;;13.24;53.57;98016.47;5042704;28;19978;-92
2023/03/10 03:58:47;;;;;;;;;;;;;;;13.26;53.59;98018.94;5042424;28;19916;-91
2023/03/10 04:01:12;;;;;;;;;;;;;;;13.25;53.54;98020.75;5042530;28;20377;-92
2023/03/10 04:03:38;;;;;;;;;;;;;;;13.25;53.75;98015.50;5060757;28;20395;-91
2023/03/10 04:06:07;;;;;;;;;;;;;;;13.26;53.53;98018.94;5077194;28;19982;-91
2023/03/10 04:08:32;;;;;;;;;;;;;;;13.28;53.21;98015.19;5076924;28;19917;-92
2023/03/10 04:10:57;;;;;;;;;;;;;;;13.30;53.57;98018.50;5042559;28;20386;-92
2023/03/10 04:13:24;;;;;;;;;;;;;;;13.31;53.60;98021.94;5060146;28;20381;-92
2023/03/10 04:15:59;;;;;;;;;;;;;;;13.32;53.47;98026.22;5046691;28;19920;-92
2023/03/10 04:18:24;;;;;;;;;;;;;;;13.32;53.67;98032.25;5041603;28;19920;-89
2023/03/10 04:20:49;;;;;;;;;;;;;;;13.33;53.43;98036.56;5058605;28;19949;-91
2023/03/10 04:23:15;;;;;;;;;;;;;;;13.34;53.63;98037.38;5058121;28;20402;-82
2023/03/10 04:25:41;;;;;;;;;;;;;;;13.37;53.77;98037.09;5076138;28;19936;-82
2023/03/10 04:28:07;;;;;;;;;;;;;;;13.39;53.57;98035.97;5058435;28;19921;-78
2023/03/10 04:30:32;;;;;;;;;;;;;;;13.44;55.18;98035.50;5057802;28;20013;-77
2023/03/10 04:32:58;;;;;;;;;;;;;;;13.46;55.09;98033.56;5075691;28;19917;-78
2023/03/10 04:35:23;;;;;;;;;;;;;;;13.46;54.42;98040.59;5057778;28;19916;-87
2023/03/10 04:37:48;;;;;;;;;;;;;;;13.47;54.25;98037.00;5075570;28;19974;-76
2023/03/10 04:40:14;;;;;;;;;;;;;;;13.48;54.49;98043.88;5075766;28;19920;-73
2023/03/10 04:42:39;;;;;;;;;;;;;;;13.47;54.50;98040.47;5057683;28;19941;-77
2023/03/10 04:45:05;;;;;;;;;;;;;;;13.60;54.09;98034.81;5057948;28;19916;-75
2023/03/10 04:47:30;;;;;;;;;;;;;;;13.99;53.18;98042.25;5057421;28;19921;-79
2023/03/10 04:49:56;;;;;;;;;;;;;;;14.35;52.49;98043.91;5057890;28;19958;-76
2023/03/10 04:52:21;;;;;;;;;;;;;;;14.28;52.59;98041.91;5075514;28;19916;-76
2023/03/10 04:54:46;;;;;;;;;;;;;;;14.51;51.92;98040.50;5057384;28;19916;-75
2023/03/10 04:57:11;;;;;;;;;;;;;;;14.54;51.84;98037.56;5058083;28;19924;-81
2023/03/10 04:59:37;;;;;;;;;;;;;;;14.50;52.05;98037.06;5091095;28;19916;-73
2023/03/10 05:02:02;;;;;;;;;;;;;;;14.45;52.40;98041.97;5074812;28;20338;-76
2023/03/10 05:04:27;;;;;;;;;;;;;;;14.37;52.95;98037.50;5057352;28;19924;-71
2023/03/10 05:06:53;;;;;;;;;;;;;;;14.40;57.75;98033.75;5058336;28;19920;-81
2023/03/10 05:09:19;;;;;;;;;;;;;;;14.78;62.49;98042.09;5066564;28;19920;-78
2023/03/10 05:11:45;;;;;;;;;;;;;;;14.92;58.98;98044.09;5040008;28;19916;-78
2023/03/10 05:14:11;;;;;;;;;;;;;;;14.93;57.23;98042.28;5057328;28;19927;-80
2023/03/10 05:16:36;;;;;;;;;;;;;;;14.93;56.27;98037.03;5056903;28;19916;-78
2023/03/10 05:19:01;;;;;;;;;;;;;;;14.94;55.59;98042.13;5057147;28;20363;-79
2023/03/10 05:21:27;;;;;;;;;;;;;;;14.97;54.92;98036.53;5057187;28;19920;-82
2023/03/10 05:23:52;;;;;;;;;;;;;;;15.03;54.28;98042.97;5039939;28;20411;-80
2023/03/10 05:26:17;;;;;;;;;;;;;;;15.11;53.86;98039.50;5039274;28;20389;-79
2023/03/10 05:28:43;;;;;;;;;;;;;;;15.17;53.37;98030.97;5074538;28;20034;-84
2023/03/10 05:31:09;;;;;;;;;;;;;;;15.27;52.89;98039.50;5056164;28;20314;-78
2023/03/10 05:33:34;;;;;;;;;;;;;;;15.42;52.46;98038.84;5039647;28;19960;-83
2023/03/10 05:36:02;;;;;;;;;;;;;;;15.59;51.53;98039.66;5056547;28;19970;-79
2023/03/10 05:38:27;;;;;;;;;;;;;;;15.81;51.12;98048.72;5038967;28;19927;-79
2023/03/10 05:40:53;;;;;;;;;;;;;;;16.03;50.52;98053.25;5074379;28;19916;-81
2023/03/10 05:43:18;;;;;;;;;;;;;;;16.22;50.38;98051.25;5039773;28;19917;-79
2023/03/10 05:45:54;;;;;;;;;;;;;;;16.32;49.84;98049.25;5056719;28;19955;-89
2023/03/10 05:48:19;;;;;;;;;;;;;;;16.42;49.37;98052.47;5056412;28;20448;-82
2023/03/10 05:50:44;;;;;;;;;;;;;;;16.52;48.99;98043.56;5073943;28;19916;-78
2023/03/10 05:53:09;;;;;;;;;;;;;;;16.73;48.19;98053.47;5074036;28;19932;-78
2023/03/10 05:55:35;;;;;;;;;;;;;;;16.87;47.88;98055.41;5055491;28;19917;-80
2023/03/10 05:58:00;;;;;;;;;;;;;;;17.01;47.71;98059.13;5056005;28;20429;-78
2023/03/10 06:00:25;;;;;;;;;;;;;;;17.16;47.42;98056.56;5073821;28;19916;-78
2023/03/10 06:02:51;;;;;;;;;;;;;;;17.33;46.99;98055.44;5074609;28;19923;-82
2023/03/10 06:05:16;;;;;;;;;;;;;;;17.46;46.12;98051.41;5039381;28;19917;-77
2023/03/10 06:07:41;;;;;;;;;;;;;;;17.69;45.51;98056.63;5055849;28;19924;-84
2023/03/10 06:10:07;;;;;;;;;;;;;;;17.97;44.41;98058.69;5053539;28;19939;-84
2023/03/10 06:12:32;;;;;;;;;;;;;;;17.92;43.67;98064.53;5038453;28;20003;-84
2023/03/10 06:14:58;;;;;;;;;;;;;;;18.31;43.23;98066.09;5038758;28;19917;-84
2023/03/10 06:17:23;;;;;;;;;;;;;;;18.67;42.12;98067.13;5056046;28;19967;-84
2023/03/10 06:19:48;;;;;;;;;;;;;;;19.07;41.33;98072.88;5039891;28;20319;-86
2023/03/10 06:22:14;;;;;;;;;;;;;;;19.50;40.26;98064.97;5056383;28;20379;-84
2023/03/10 06:24:39;;;;;;;;;;;;;;;19.92;39.54;98057.16;5039218;28;19925;-84
2023/03/10 06:27:04;;;;;;;;;;;;;;;20.34;38.55;98058.81;5056272;28;19923;-85
2023/03/10 06:29:30;;;;;;;;;;;;;;;20.78;37.96;98052.28;5039277;28;19920;-85
2023/03/10 06:31:55;;;;;;;;;;;;;;;21.35;37.04;98052.00;5039327;28;19917;-85
2023/03/10 06:34:20;;;;;;;;;;;;;;;21.92;36.12;98051.59;5039379;28;19921;-84
2023/03/10 06:36:46;;;;;;;;;;;;;;;22.46;35.18;98047.00;5038381;28;19917;-83
2023/03/10 06:39:11;;;;;;;;;;;;;;;23.06;34.48;98046.69;5039190;28;19916;-82
2023/03/10 06:41:36;;;;;;;;;;;;;;;23.66;33.35;98044.41;5056860;28;19916;-83
2023/03/10 06:44:02;;;;;;;;;;;;;;;24.20;32.18;98051.94;5038397;28;19973;-83
2023/03/10 06:46:27;;;;;;;;;;;;;;;24.65;31.82;98054.28;5073992;28;19920;-83
2023/03/10 06:48:53;;;;;;;;;;;;;;;25.09;30.90;98049.59;5055429;28;20019;-86
2023/03/10 06:51:18;;;;;;;;;;;;;;;25.42;30.25;98052.84;5039458;28;20300;-83
2023/03/10 06:53:44;;;;;;;;;;;;;;;25.73;29.45;98051.72;5056050;28;19947;-82
2023/03/10 06:56:16;;;;;;;;;;;;;;;25.99;29.07;98047.78;5039616;28;20291;-87
2023/03/10 06:58:41;;;;;;;;;;;;;;;26.18;28.53;98051.13;5039095;28;19954;-82
2023/03/10 07:01:07;;;;;;;;;;;;;;;26.07;28.59;98043.94;5055444;28;19959;-84
2023/03/10 07:03:32;;;;;;;;;;;;;;;26.02;28.40;98041.16;5055658;28;19916;-91
2023/03/10 07:06:00;;;;;;;;;;;;;;;26.15;27.84;98051.59;5060402;28;19958;-89
2023/03/10 07:08:26;;;;;;;;;;;;;;;26.39;27.71;98050.75;5043819;28;19966;-90
2023/03/10 07:10:52;;;;;;;;;;;;;;;26.67;27.40;98045.44;5060085;28;19916;-89
2023/03/10 07:13:17;;;;;;;;;;;;;;;27.12;26.94;98046.53;5042364;28;20406;-88
2023/03/10 07:15:43;;;;;;;;;;;;;;;27.51;26.24;98046.66;5058896;28;19917;-90
2023/03/10 07:18:08;;;;;;;;;;;;;;;27.66;25.83;98056.00;5084066;28;19916;-91
2023/03/10 07:20:33;;;;;;;;;;;;;;;27.60;25.79;98057.81;5068591;28;20383;-89
2023/03/10 07:22:59;;;;;;;;;;;;;;;27.68;25.69;98056.59;5065166;28;19923;-90
2023/03/10 07:25:24;;;;;;;;;;;;;;;27.75;25.66;98055.38;5047868;28;19928;-90
2023/03/10 07:27:50;;;;;;;;;;;;;;;27.61;25.55;98041.47;5055541;28;19943;-92
2023/03/10 07:30:15;;;;;;;;;;;;;;;27.46;25.56;98046.59;5068152;28;19921;-91
2023/03/10 07:32:40;;;;;;;;;;;;;;;27.64;25.27;98050.88;5048715;28;20468;-90
2023/03/10 07:35:06;;;;;;;;;;;;;;;27.48;25.91;98047.16;5068105;28;19939;-91
2023/03/10 07:37:31;;;;;;;;;;;;;;;27.82;25.65;98049.81;5064736;28;20383;-89
2023/03/10 07:39:56;;;;;;;;;;;;;;;27.87;25.62;98049.91;5063635;28;19924;-89
2023/03/10 07:42:22;;;;;;;;;;;;;;;28.28;25.07;98049.69;5059530;28;19922;-89
2023/03/10 07:44:47;;;;;;;;;;;;;;;28.48;24.92;98052.63;5059401;28;19916;-89
2023/03/10 07:47:12;;;;;;;;;;;;;;;28.57;24.68;98062.91;5059930;28;19973;-88
2023/03/10 07:49:38;;;;;;;;;;;;;;;28.78;24.31;98062.13;5041314;28;19916;-88
2023/03/10 07:52:03;;;;;;;;;;;;;;;29.14;23.97;98056.28;5063269;28;19924;-90
2023/03/10 07:54:28;;;;;;;;;;;;;;;29.33;23.81;98057.53;5039693;28;20375;-83
2023/03/10 07:56:54;;;;;;;;;;;;;;;29.44;23.36;98053.06;5055877;28;19916;-83
2023/03/10 07:59:19;;;;;;;;;;;;;;;29.53;23.20;98061.50;5055196;28;19917;-81
2023/03/10 08:01:44;;;;;;;;;;;;;;;29.72;22.93;98060.00;5065618;28;19942;-92
2023/03/10 08:04:11;;;;;;;;;;;;;;;29.72;23.30;98059.22;5060834;28;20364;-88
2023/03/10 08:06:36;;;;;;;;;;;;;;;29.93;23.01;98057.47;5058003;28;19917;-86
2023/03/10 08:09:02;;;;;;;;;;;;;;;30.06;23.02;98061.59;5041245;28;19939;-88
2023/03/10 08:11:27;;;;;;;;;;;;;;;30.04;23.05;98064.53;5057921;28;20066;-87
2023/03/10 08:13:52;;;;;;;;;;;;;;;29.99;23.51;98061.03;5040263;28;20391;-87
2023/03/10 08:16:18;;;;;;;;;;;;;;;29.88;23.04;98068.22;5079625;28;19917;-79
2023/03/10 08:18:44;;;;;;;;;;;;;;;29.62;23.47;98061.81;5040651;28;19920;-82
2023/03/10 08:21:09;;;;;;;;;;;;;;;29.51;23.54;98056.38;5041415;28;19917;-89
2023/03/10 08:23:34;;;;;;;;;;;;;;;29.50;24.01;98057.44;5057834;28;19916;-88
2023/03/10 08:26:00;;;;;;;;;;;;;;;29.27;24.37;98060.44;5041201;28;19983;-87
2023/03/10 08:28:27;;;;;;;;;;;;;;;29.03;24.53;98061.56;5039765;28;19916;-88
2023/03/10 08:30:53;;;;;;;;;;;;;;;28.81;24.61;98055.41;5056180;28;19959;-88
2023/03/10 08:33:20;;;;;;;;;;;;;;;28.52;24.84;98052.91;5043173;28;20406;-88
2023/03/10 08:35:45;;;;;;;;;;;;;;;28.22;25.41;98046.09;5081709;28;19917;-90
2023/03/10 08:38:10;;;;;;;;;;;;;;;27.97;25.79;98050.09;5043136;28;19921;-86
2023/03/10 08:40:36;;;;;;;;;;;;;;;27.63;26.25;98038.56;5043475;28;20039;-87
2023/03/10 08:43:01;;;;;;;;;;;;;;;27.37;26.51;98045.38;5054728;28;19988;-91
2023/03/10 08:45:27;;;;;;;;;;;;;;;27.11;26.91;98031.53;5061175;28;19920;-90
2023/03/10 08:47:52;;;;;;;;;;;;;;;26.81;27.59;98042.50;5059753;28;19928;-90
2023/03/10 08:50:17;;;;;;;;;;;;;;;26.56;27.90;98034.75;5077640;28;20027;-93
2023/03/10 08:52:42;;;;;;;;;;;;;;;26.29;27.92;98040.66;5075927;28;19916;-89
2023/03/10 08:55:09;;;;;;;;;;;;;;;26.17;28.06;98036.13;5075056;28;19916;-92
2023/03/10 08:57:34;;;;;;;;;;;;;;;25.95;28.62;98035.06;5073547;28;19916;-90
2023/03/10 09:00:00;;;;;;;;;;;;;;;25.85;28.91;98037.53;5057502;28;19917;-92
2023/03/10 09:02:26;;;;;;;;;;;;;;;25.71;29.25;98032.41;5062222;28;19900;-92
2023/03/10 09:04:52;;;;;;;;;;;;;;;25.64;29.07;98034.38;5070923;28;20114;-81
2023/03/10 09:07:17;;;;;;;;;;;;;;;25.53;29.46;98035.19;5058029;28;20003;-86
2023/03/10 09:09:43;;;;;;;;;;;;;;;25.42;29.10;98034.13;5041548;28;19916;-85
2023/03/10 09:12:09;;;;;;;;;;;;;;;25.32;29.60;98040.06;5042181;28;20007;-84
2023/03/10 09:14:35;;;;;;;;;;;;;;;25.23;29.61;98036.06;5059803;28;19916;-87
2023/03/10 09:17:00;;;;;;;;;;;;;;;25.20;29.73;98029.28;5043954;28;19917;-86
2023/03/10 09:19:25;;;;;;;;;;;;;;;25.17;29.64;98024.41;5062021;28;19923;-87
2023/03/10 09:21:51;;;;;;;;;;;;;;;25.00;29.62;98023.44;5047151;28;19920;-89
2023/03/10 09:24:18;;;;;;;;;;;;;;;24.98;29.71;98026.34;5046946;28;20296;-88
2023/03/10 09:26:43;;;;;;;;;;;;;;;25.02;29.47;98018.72;5065119;28;19916;-88
2023/03/10 09:29:09;;;;;;;;;;;;;;;25.03;29.56;98023.81;5047587;28;20455;-89
2023/03/10 09:31:34;;;;;;;;;;;;;;;25.03;29.31;98021.16;5063447;28;19916;-90
2023/03/10 09:34:00;;;;;;;;;;;;;;;25.00;29.48;98015.44;5045074;28;19916;-85
2023/03/10 09:36:25;;;;;;;;;;;;;;;24.98;29.51;98017.53;5047188;28;19952;-92
2023/03/10 09:38:51;;;;;;;;;;;;;;;25.00;29.55;98015.44;5051627;28;19920;-90
2023/03/10 09:41:34;;;;;;;;;;;;;;;24.99;29.67;98009.28;5051752;28;20444;-87
2023/03/10 09:44:03;;;;;;;;;;;;;;;24.99;29.42;98003.94;5083034;28;19917;-90
2023/03/10 09:46:41;;;;;;;;;;;;;;;25.02;29.71;98008.03;5069194;28;19917;-90
2023/03/10 09:49:12;;;;;;;;;;;;;;;25.19;29.50;98006.31;5048961;28;20372;-89
2023/03/10 09:51:38;;;;;;;;;;;;;;;25.28;29.32;98012.16;5062384;28;19917;-89
2023/03/10 09:54:06;;;;;;;;;;;;;;;25.50;28.69;98006.28;5060430;28;20022;-89
2023/03/10 09:56:32;;;;;;;;;;;;;;;25.68;28.77;98000.81;5063195;28;20391;-89
2023/03/10 09:59:01;;;;;;;;;;;;;;;25.74;28.64;98001.72;5054436;28;19955;-95
2023/03/10 10:01:27;;;;;;;;;;;;;;;26.03;28.09;97988.47;5073611;28;19916;-91
2023/03/10 10:03:56;;;;;;;;;;;;;;;26.16;28.10;97983.69;5076338;28;19921;-84
2023/03/10 10:06:32;;;;;;;;;;;;;;;26.25;28.36;97978.78;5039845;28;19917;-82
2023/03/10 10:08:58;;;;;;;;;;;;;;;26.24;28.22;97981.69;5039694;28;19924;-83
2023/03/10 10:11:23;;;;;;;;;;;;;;;26.24;28.06;97987.06;5074546;28;19917;-82
2023/03/10 10:13:49;;;;;;;;;;;;;;;26.38;28.29;97992.91;5056834;28;19922;-82
2023/03/10 10:16:19;;;;;;;;;;;;;;;26.48;28.37;97985.91;5059022;28;20406;-83
2023/03/10 10:18:54;;;;;;;;;;;;;;;26.62;27.78;97977.59;5040816;28;19923;-87
2023/03/10 10:21:21;;;;;;;;;;;;;;;26.78;27.83;97976.03;5057516;28;19917;-78
2023/03/10 10:23:51;;;;;;;;;;;;;;;27.00;27.59;97971.59;5040210;28;19916;-83
2023/03/10 10:26:17;;;;;;;;;;;;;;;27.18;27.34;97965.19;5055949;28;19958;-85
2023/03/10 10:28:42;;;;;;;;;;;;;;;27.29;27.14;97958.13;5039505;28;19925;-83
2023/03/10 10:31:09;;;;;;;;;;;;;;;27.39;27.10;97954.81;5074194;28;20368;-83
2023/03/10 10:33:49;;;;;;;;;;;;;;;27.49;27.10;97946.13;5057216;28;19917;-83
2023/03/10 10:36:15;;;;;;;;;;;;;;;27.54;26.86;97940.84;5055944;28;19924;-82
2023/03/10 10:38:40;;;;;;;;;;;;;;;27.52;26.71;97926.88;5056067;28;19916;-83
2023/03/10 10:41:08;;;;;;;;;;;;;;;27.36;26.35;97925.84;5057505;28;19916;-83
2023/03/10 10:43:41;;;;;;;;;;;;;;;27.38;26.57;97911.13;5039535;28;19917;-85
2023/03/10 10:46:07;;;;;;;;;;;;;;;27.49;26.84;97909.41;5039595;28;19916;-83
2023/03/10 10:48:39;;;;;;;;;;;;;;;27.55;26.43;97897.72;5039001;28;20362;-82
2023/03/10 10:51:06;;;;;;;;;;;;;;;27.64;26.79;97890.03;5038573;28;20402;-82
2023/03/10 10:53:34;;;;;;;;;;;;;;;27.67;26.64;97886.06;5039157;28;19928;-81
2023/03/10 10:56:01;;;;;;;;;;;;;;;27.68;26.55;97885.00;5038779;28;20399;-84
2023/03/10 10:58:31;;;;;;;;;;;;;;;27.54;25.88;97885.34;5038732;28;19939;-86
2023/03/10 11:00:57;;;;;;;;;;;;;;;27.18;26.94;97874.09;5039373;28;19923;-87
2023/03/10 11:03:23;;;;;;;;;;;;;;;27.26;26.17;97879.06;5039379;28;19974;-82
2023/03/10 11:05:48;;;;;;;;;;;;;;;27.00;27.25;97874.41;5073298;28;20379;-82
2023/03/10 11:08:26;;;;;;;;;;;;;;;27.08;27.27;97856.03;5039434;28;19999;-83
2023/03/10 11:11:11;;;;;;;;;;;;;;;26.95;27.08;97847.53;5055077;28;19945;-83
2023/03/10 11:13:39;;;;;;;;;;;;;;;26.77;27.66;97838.69;5055713;28;19920;-84
2023/03/10 11:16:23;;;;;;;;;;;;;;;26.83;27.52;97826.19;5038695;28;20019;-85
2023/03/10 11:18:50;;;;;;;;;;;;;;;26.58;27.83;97815.88;5055229;28;19916;-85
2023/03/10 11:21:22;;;;;;;;;;;;;;;26.52;27.74;97818.47;5038642;28;19923;-81
2023/03/10 11:23:51;;;;;;;;;;;;;;;26.20;27.39;97804.81;5038179;28;20067;-84
2023/03/10 11:26:39;;;;;;;;;;;;;;;25.84;27.79;97796.13;5054649;28;19955;-85
2023/03/10 11:29:06;;;;;;;;;;;;;;;25.54;28.40;97797.16;5055270;28;20372;-83
2023/03/10 11:31:31;;;;;;;;;;;;;;;25.25;28.70;97785.56;5072708;28;20460;-83
2023/03/10 11:34:32;;;;;;;;;;;;;;;24.96;29.36;97780.16;5054697;28;19916;-82
2023/03/10 11:37:13;;;;;;;;;;;;;;;24.74;29.77;97772.72;4990930;28;19925;-84
2023/03/10 11:39:47;;;;;;;;;;;;;;;24.55;30.18;97772.00;4996762;28;19918;-82
2023/03/10 11:42:18;;;;;;;;;;;;;;;24.56;30.38;97780.84;4993687;28;19917;-81
2023/03/10 11:44:59;;;;;;;;;;;;;;;24.62;30.45;97763.09;4991186;28;19930;-83
2023/03/10 11:47:27;;;;;;;;;;;;;;;24.76;30.70;97755.69;4991277;28;19918;-83
2023/03/10 11:50:12;;;;;;;;;;;;;;;24.65;31.08;97755.44;4991304;28;19943;-83
2023/03/10 11:52:37;;;;;;;;;;;;;;;24.39;31.78;97748.69;4980680;28;19918;-81
2023/03/10 11:55:04;;;;;;;;;;;;;;;24.51;31.54;97743.34;4974860;28;20040;-83
2023/03/10 11:57:32;;;;;;;;;;;;;;;24.59;31.88;97744.88;4958732;28;20282;-81
2023/03/10 12:00:00;;;;;;;;;;;;;;;24.52;31.92;97739.66;4975344;28;19980;-84
2023/03/10 12:02:41;;;;;;;;;;;;;;;24.36;32.31;97723.28;4975265;28;19949;-84
2023/03/10 12:05:13;;;;;;;;;;;;;;;24.41;32.20;97727.13;4975218;28;19921;-82
2023/03/10 12:07:39;;;;;;;;;;;;;;;24.40;32.43;97715.66;4959823;28;19917;-84
2023/03/10 12:10:11;;;;;;;;;;;;;;;24.38;32.65;97701.72;4978438;28;19938;-86
2023/03/10 12:12:37;;;;;;;;;;;;;;;24.33;32.67;97693.59;5060844;28;19950;-86
2023/03/10 12:15:04;;;;;;;;;;;;;;;24.28;33.01;97696.97;5044434;28;20019;-85
2023/03/10 12:17:30;;;;;;;;;;;;;;;24.20;33.12;97700.78;5045326;28;20306;-86
2023/03/10 12:20:14;;;;;;;;;;;;;;;23.91;33.73;97694.50;5043813;28;19916;-84
2023/03/10 12:22:45;;;;;;;;;;;;;;;23.54;34.54;97693.75;5078651;28;19916;-83
2023/03/10 12:25:29;;;;;;;;;;;;;;;23.22;35.10;97693.97;5076920;28;20458;-83
2023/03/10 12:28:13;;;;;;;;;;;;;;;22.98;35.48;97685.84;5076223;28;19923;-83
2023/03/10 12:30:48;;;;;;;;;;;;;;;22.71;36.10;97680.81;5076923;28;19920;-81
2023/03/10 12:35:57;;;;;;;;;;;;;;;22.43;36.31;97683.13;5077223;28;19939;-85
2023/03/10 12:38:25;;;;;;;;;;;;;;;22.21;36.72;97676.31;5058979;28;20371;-84
2023/03/10 12:40:50;;;;;;;;;;;;;;;21.94;36.99;97669.63;5076924;28;19923;-85
2023/03/10 12:43:39;;;;;;;;;;;;;;;21.77;37.55;97678.09;5058450;28;19917;-82
2023/03/10 12:46:05;;;;;;;;;;;;;;;21.72;37.67;97688.56;5057817;28;19966;-83
2023/03/10 12:48:30;;;;;;;;;;;;;;;21.55;38.28;97685.59;5059346;28;20359;-84
2023/03/10 12:50:59;;;;;;;;;;;;;;;21.32;38.74;97684.25;5042381;28;19987;-83